sensor_id;sensor_type;location;lat;lon;timestamp;pressure;altitude;pressure_sealevel;temperature;humidity
54876;BME280;40764;48.472;8.166;2023-07-20T00:03:14;98171.00;;;20.72;56.21
54876;BME280;40764;48.472;8.166;2023-07-20T00:09:19;98169.53;;;20.79;55.93
54876;BME280;40764;48.472;8.166;2023-07-20T00:15:19;98173.53;;;20.97;54.06
54876;BME280;40764;48.472;8.166;2023-07-20T00:21:19;98173.97;;;20.64;55.71
54876;BME280;40764;48.472;8.166;2023-07-20T00:27:20;98180.34;;;20.49;57.62
54876;BME280;40764;48.472;8.166;2023-07-20T00:33:20;98180.19;;;20.26;58.59
54876;BME280;40764;48.472;8.166;2023-07-20T00:39:20;98177.97;;;20.00;58.34
54876;BME280;40764;48.472;8.166;2023-07-20T00:45:21;98184.31;;;19.85;59.35
54876;BME280;40764;48.472;8.166;2023-07-20T00:51:26;98174.00;;;19.69;60.61
54876;BME280;40764;48.472;8.166;2023-07-20T00:57:39;98175.03;;;19.21;62.82
54876;BME280;40764;48.472;8.166;2023-07-20T01:03:39;98177.34;;;19.19;62.50
54876;BME280;40764;48.472;8.166;2023-07-20T01:09:45;98165.91;;;19.21;62.29
54876;BME280;40764;48.472;8.166;2023-07-20T01:15:57;98170.03;;;19.27;62.38
54876;BME280;40764;48.472;8.166;2023-07-20T01:22:11;98173.78;;;19.06;64.03
54876;BME280;40764;48.472;8.166;2023-07-20T01:34:24;98179.94;;;19.00;63.85
54876;BME280;40764;48.472;8.166;2023-07-20T01:40:25;98166.09;;;19.00;63.82
54876;BME280;40764;48.472;8.166;2023-07-20T01:46:26;98161.34;;;19.28;62.71
54876;BME280;40764;48.472;8.166;2023-07-20T01:52:27;98168.59;;;19.05;63.35
54876;BME280;40764;48.472;8.166;2023-07-20T01:58:27;98152.22;;;19.12;63.57
54876;BME280;40764;48.472;8.166;2023-07-20T02:04:27;98169.38;;;18.77;64.85
54876;BME280;40764;48.472;8.166;2023-07-20T02:10:28;98169.09;;;18.95;64.83
54876;BME280;40764;48.472;8.166;2023-07-20T02:16:28;98166.13;;;18.87;65.43
54876;BME280;40764;48.472;8.166;2023-07-20T02:22:28;98168.97;;;19.03;64.60
54876;BME280;40764;48.472;8.166;2023-07-20T02:28:29;98169.66;;;19.00;64.77
54876;BME280;40764;48.472;8.166;2023-07-20T02:34:29;98176.88;;;18.89;64.38
54876;BME280;40764;48.472;8.166;2023-07-20T02:40:29;98167.41;;;18.78;65.76
54876;BME280;40764;48.472;8.166;2023-07-20T02:46:30;98171.00;;;18.78;66.36
54876;BME280;40764;48.472;8.166;2023-07-20T02:52:30;98180.25;;;18.34;67.96
54876;BME280;40764;48.472;8.166;2023-07-20T02:58:31;98173.56;;;18.59;67.55
54876;BME280;40764;48.472;8.166;2023-07-20T03:04:31;98166.06;;;18.47;68.23
54876;BME280;40764;48.472;8.166;2023-07-20T03:10:32;98177.03;;;18.32;68.38
54876;BME280;40764;48.472;8.166;2023-07-20T03:16:32;98173.00;;;18.29;68.16
54876;BME280;40764;48.472;8.166;2023-07-20T03:22:33;98172.41;;;18.60;67.90
54876;BME280;40764;48.472;8.166;2023-07-20T03:28:34;98174.94;;;18.53;67.85
54876;BME280;40764;48.472;8.166;2023-07-20T03:34:35;98179.31;;;18.42;67.83
54876;BME280;40764;48.472;8.166;2023-07-20T03:40:35;98190.75;;;18.40;67.75
54876;BME280;40764;48.472;8.166;2023-07-20T03:46:35;98192.59;;;18.61;66.82
54876;BME280;40764;48.472;8.166;2023-07-20T03:52:36;98187.53;;;18.38;68.39
54876;BME280;40764;48.472;8.166;2023-07-20T03:58:36;98189.59;;;18.41;68.96
54876;BME280;40764;48.472;8.166;2023-07-20T04:04:37;98192.22;;;18.50;68.64
54876;BME280;40764;48.472;8.166;2023-07-20T04:10:37;98182.56;;;18.68;68.51
54876;BME280;40764;48.472;8.166;2023-07-20T04:16:38;98188.09;;;18.32;69.51
54876;BME280;40764;48.472;8.166;2023-07-20T04:22:38;98191.44;;;18.37;69.16
54876;BME280;40764;48.472;8.166;2023-07-20T04:28:39;98202.72;;;18.44;68.65
54876;BME280;40764;48.472;8.166;2023-07-20T04:34:42;98194.56;;;18.23;69.58
54876;BME280;40764;48.472;8.166;2023-07-20T04:40:47;98201.13;;;18.19;70.94
54876;BME280;40764;48.472;8.166;2023-07-20T04:46:48;98204.34;;;18.57;69.87
54876;BME280;40764;48.472;8.166;2023-07-20T04:52:48;98206.91;;;18.63;69.86
54876;BME280;40764;48.472;8.166;2023-07-20T04:58:49;98209.19;;;18.85;69.24
54876;BME280;40764;48.472;8.166;2023-07-20T05:04:49;98204.66;;;18.93;67.96
54876;BME280;40764;48.472;8.166;2023-07-20T05:10:49;98210.38;;;19.12;68.42
54876;BME280;40764;48.472;8.166;2023-07-20T05:16:50;98206.44;;;19.53;67.72
54876;BME280;40764;48.472;8.166;2023-07-20T05:22:50;98204.63;;;19.33;67.69
54876;BME280;40764;48.472;8.166;2023-07-20T05:28:50;98195.56;;;19.48;67.93
54876;BME280;40764;48.472;8.166;2023-07-20T05:34:52;98197.84;;;19.58;66.95
54876;BME280;40764;48.472;8.166;2023-07-20T05:40:59;98196.38;;;19.76;64.90
54876;BME280;40764;48.472;8.166;2023-07-20T05:47:01;98199.44;;;20.03;64.31
54876;BME280;40764;48.472;8.166;2023-07-20T05:53:02;98205.69;;;20.16;63.46
54876;BME280;40764;48.472;8.166;2023-07-20T05:59:02;98201.13;;;20.23;63.41
54876;BME280;40764;48.472;8.166;2023-07-20T06:05:03;98192.81;;;20.55;62.85
54876;BME280;40764;48.472;8.166;2023-07-20T06:11:03;98197.75;;;20.46;63.01
54876;BME280;40764;48.472;8.166;2023-07-20T06:17:05;98202.31;;;20.54;62.53
54876;BME280;40764;48.472;8.166;2023-07-20T06:23:05;98199.69;;;20.96;60.56
54876;BME280;40764;48.472;8.166;2023-07-20T06:29:06;98201.75;;;20.99;59.45
54876;BME280;40764;48.472;8.166;2023-07-20T06:35:06;98206.44;;;21.14;59.04
54876;BME280;40764;48.472;8.166;2023-07-20T06:41:08;98198.56;;;21.16;58.57
54876;BME280;40764;48.472;8.166;2023-07-20T06:47:08;98196.28;;;21.60;57.28
54876;BME280;40764;48.472;8.166;2023-07-20T06:53:09;98199.91;;;21.84;56.91
54876;BME280;40764;48.472;8.166;2023-07-20T06:59:09;98194.09;;;21.92;56.07
54876;BME280;40764;48.472;8.166;2023-07-20T07:05:09;98186.22;;;22.17;55.45
54876;BME280;40764;48.472;8.166;2023-07-20T07:11:10;98183.91;;;22.23;53.69
54876;BME280;40764;48.472;8.166;2023-07-20T07:17:10;98187.25;;;22.32;52.58
54876;BME280;40764;48.472;8.166;2023-07-20T07:23:10;98192.63;;;22.44;52.37
54876;BME280;40764;48.472;8.166;2023-07-20T07:29:11;98189.38;;;22.16;52.91
54876;BME280;40764;48.472;8.166;2023-07-20T07:35:11;98189.41;;;22.19;52.93
54876;BME280;40764;48.472;8.166;2023-07-20T07:41:12;98191.66;;;22.10;53.32
54876;BME280;40764;48.472;8.166;2023-07-20T07:47:12;98191.72;;;22.14;53.46
54876;BME280;40764;48.472;8.166;2023-07-20T07:53:13;98192.91;;;22.13;52.80
54876;BME280;40764;48.472;8.166;2023-07-20T07:59:13;98194.94;;;22.16;53.33
54876;BME280;40764;48.472;8.166;2023-07-20T08:05:14;98198.63;;;22.23;53.03
54876;BME280;40764;48.472;8.166;2023-07-20T08:11:14;98199.44;;;22.73;51.83
54876;BME280;40764;48.472;8.166;2023-07-20T08:17:15;98188.72;;;22.75;51.77
54876;BME280;40764;48.472;8.166;2023-07-20T08:23:16;98194.47;;;22.86;52.02
54876;BME280;40764;48.472;8.166;2023-07-20T08:29:16;98187.28;;;22.59;52.21
54876;BME280;40764;48.472;8.166;2023-07-20T08:35:17;98194.28;;;22.75;52.62
54876;BME280;40764;48.472;8.166;2023-07-20T08:41:19;98188.97;;;22.67;51.11
54876;BME280;40764;48.472;8.166;2023-07-20T08:47:30;98182.22;;;22.68;54.78
54876;BME280;40764;48.472;8.166;2023-07-20T08:53:32;98193.84;;;23.30;52.99
54876;BME280;40764;48.472;8.166;2023-07-20T08:59:36;98186.91;;;23.46;48.55
54876;BME280;40764;48.472;8.166;2023-07-20T09:05:39;98169.03;;;23.88;48.91
54876;BME280;40764;48.472;8.166;2023-07-20T09:11:40;98175.53;;;23.62;47.45
54876;BME280;40764;48.472;8.166;2023-07-20T09:17:46;98182.81;;;23.40;44.47
54876;BME280;40764;48.472;8.166;2023-07-20T09:23:47;98178.50;;;23.13;45.21
54876;BME280;40764;48.472;8.166;2023-07-20T09:29:50;98176.75;;;23.31;44.85
54876;BME280;40764;48.472;8.166;2023-07-20T09:35:51;98168.25;;;23.54;44.12
54876;BME280;40764;48.472;8.166;2023-07-20T09:41:51;98166.94;;;24.22;43.79
54876;BME280;40764;48.472;8.166;2023-07-20T09:48:03;98149.94;;;24.38;43.39
54876;BME280;40764;48.472;8.166;2023-07-20T09:54:04;98148.16;;;24.19;43.65
54876;BME280;40764;48.472;8.166;2023-07-20T10:00:07;98143.34;;;24.16;43.36
54876;BME280;40764;48.472;8.166;2023-07-20T10:06:15;98128.94;;;24.62;41.74
54876;BME280;40764;48.472;8.166;2023-07-20T10:12:16;98127.97;;;24.98;42.70
54876;BME280;40764;48.472;8.166;2023-07-20T10:18:23;98115.53;;;24.89;41.15
54876;BME280;40764;48.472;8.166;2023-07-20T10:24:26;98115.63;;;24.41;42.63
54876;BME280;40764;48.472;8.166;2023-07-20T10:30:28;98117.97;;;24.32;42.83
54876;BME280;40764;48.472;8.166;2023-07-20T10:36:28;98118.09;;;24.50;42.42
54876;BME280;40764;48.472;8.166;2023-07-20T10:42:33;98117.88;;;24.25;43.27
54876;BME280;40764;48.472;8.166;2023-07-20T10:48:35;98108.94;;;24.56;44.12
54876;BME280;40764;48.472;8.166;2023-07-20T10:54:55;98104.50;;;25.28;41.73
54876;BME280;40764;48.472;8.166;2023-07-20T11:01:03;98093.78;;;25.48;41.93
54876;BME280;40764;48.472;8.166;2023-07-20T11:07:07;98104.25;;;25.79;39.79
54876;BME280;40764;48.472;8.166;2023-07-20T11:13:22;98099.50;;;24.79;40.68
54876;BME280;40764;48.472;8.166;2023-07-20T11:19:24;98091.53;;;24.84;43.29
54876;BME280;40764;48.472;8.166;2023-07-20T11:25:36;98086.06;;;25.13;42.44
54876;BME280;40764;48.472;8.166;2023-07-20T11:31:40;98081.34;;;25.38;40.75
54876;BME280;40764;48.472;8.166;2023-07-20T11:37:41;98072.63;;;25.68;39.91
54876;BME280;40764;48.472;8.166;2023-07-20T11:43:41;98064.53;;;25.17;40.91
54876;BME280;40764;48.472;8.166;2023-07-20T11:49:43;98059.75;;;25.31;40.37
54876;BME280;40764;48.472;8.166;2023-07-20T11:55:45;98059.06;;;25.88;40.11
54876;BME280;40764;48.472;8.166;2023-07-20T12:01:46;98040.63;;;26.01;40.12
54876;BME280;40764;48.472;8.166;2023-07-20T12:07:46;98040.47;;;26.83;39.02
54876;BME280;40764;48.472;8.166;2023-07-20T12:13:47;98037.78;;;25.44;38.70
54876;BME280;40764;48.472;8.166;2023-07-20T12:19:48;98038.56;;;25.16;39.36
54876;BME280;40764;48.472;8.166;2023-07-20T12:25:48;98025.41;;;25.27;39.46
54876;BME280;40764;48.472;8.166;2023-07-20T12:31:48;98012.22;;;25.21;39.84
54876;BME280;40764;48.472;8.166;2023-07-20T12:37:49;98015.34;;;25.01;39.08
54876;BME280;40764;48.472;8.166;2023-07-20T12:43:51;98006.19;;;25.15;40.82
54876;BME280;40764;48.472;8.166;2023-07-20T12:49:51;98004.69;;;25.75;39.48
54876;BME280;40764;48.472;8.166;2023-07-20T12:55:51;97989.50;;;25.76;37.92
54876;BME280;40764;48.472;8.166;2023-07-20T13:01:54;97999.84;;;25.57;37.49
54876;BME280;40764;48.472;8.166;2023-07-20T13:07:54;97993.47;;;25.82;36.42
54876;BME280;40764;48.472;8.166;2023-07-20T13:13:54;97991.47;;;25.54;36.94
54876;BME280;40764;48.472;8.166;2023-07-20T13:19:55;97984.25;;;25.49;37.63
54876;BME280;40764;48.472;8.166;2023-07-20T13:26:07;97975.84;;;25.39;37.77
54876;BME280;40764;48.472;8.166;2023-07-20T13:32:08;97981.88;;;25.87;37.80
54876;BME280;40764;48.472;8.166;2023-07-20T13:38:09;97968.75;;;26.89;35.08
54876;BME280;40764;48.472;8.166;2023-07-20T13:44:18;97969.28;;;26.59;36.81
54876;BME280;40764;48.472;8.166;2023-07-20T13:50:18;97965.88;;;27.62;34.72
54876;BME280;40764;48.472;8.166;2023-07-20T13:56:18;97945.44;;;27.58;34.62
54876;BME280;40764;48.472;8.166;2023-07-20T14:02:18;97942.41;;;28.24;36.26
54876;BME280;40764;48.472;8.166;2023-07-20T14:08:19;97942.53;;;27.17;34.81
54876;BME280;40764;48.472;8.166;2023-07-20T14:14:19;97945.81;;;27.64;33.20
54876;BME280;40764;48.472;8.166;2023-07-20T14:20:20;97934.22;;;28.71;32.33
54876;BME280;40764;48.472;8.166;2023-07-20T14:26:20;97930.31;;;29.19;30.98
54876;BME280;40764;48.472;8.166;2023-07-20T14:32:21;97935.34;;;29.58;30.25
54876;BME280;40764;48.472;8.166;2023-07-20T14:38:21;97937.81;;;30.42;28.28
54876;BME280;40764;48.472;8.166;2023-07-20T14:44:21;97909.44;;;29.90;29.46
54876;BME280;40764;48.472;8.166;2023-07-20T14:50:22;97916.44;;;30.02;29.17
54876;BME280;40764;48.472;8.166;2023-07-20T14:56:22;97903.84;;;29.86;28.15
54876;BME280;40764;48.472;8.166;2023-07-20T15:02:23;97905.31;;;29.24;28.74
54876;BME280;40764;48.472;8.166;2023-07-20T15:08:23;97902.38;;;28.13;30.47
54876;BME280;40764;48.472;8.166;2023-07-20T15:14:25;97909.06;;;27.89;30.42
54876;BME280;40764;48.472;8.166;2023-07-20T15:20:25;97890.97;;;27.93;32.75
54876;BME280;40764;48.472;8.166;2023-07-20T15:26:29;97878.72;;;29.02;32.63
54876;BME280;40764;48.472;8.166;2023-07-20T15:32:31;97876.16;;;28.23;30.23
54876;BME280;40764;48.472;8.166;2023-07-20T15:38:32;97885.19;;;28.72;30.79
54876;BME280;40764;48.472;8.166;2023-07-20T15:44:34;97869.41;;;29.79;28.54
54876;BME280;40764;48.472;8.166;2023-07-20T15:50:34;97868.50;;;29.62;28.16
54876;BME280;40764;48.472;8.166;2023-07-20T15:56:39;97863.91;;;29.48;28.47
54876;BME280;40764;48.472;8.166;2023-07-20T16:02:40;97863.88;;;29.02;28.72
54876;BME280;40764;48.472;8.166;2023-07-20T16:08:40;97857.53;;;29.21;28.90
54876;BME280;40764;48.472;8.166;2023-07-20T16:14:40;97854.84;;;30.04;28.58
54876;BME280;40764;48.472;8.166;2023-07-20T16:20:41;97841.59;;;30.60;27.40
54876;BME280;40764;48.472;8.166;2023-07-20T16:26:43;97851.63;;;30.61;26.34
54876;BME280;40764;48.472;8.166;2023-07-20T16:32:43;97857.34;;;29.78;27.42
54876;BME280;40764;48.472;8.166;2023-07-20T16:38:45;97840.47;;;30.38;26.99
54876;BME280;40764;48.472;8.166;2023-07-20T16:44:52;97840.81;;;30.40;26.91
54876;BME280;40764;48.472;8.166;2023-07-20T16:50:52;97837.50;;;30.25;28.96
54876;BME280;40764;48.472;8.166;2023-07-20T16:56:53;97828.28;;;29.15;28.29
54876;BME280;40764;48.472;8.166;2023-07-20T17:02:53;97835.91;;;28.64;29.25
54876;BME280;40764;48.472;8.166;2023-07-20T17:08:53;97831.38;;;28.70;29.16
54876;BME280;40764;48.472;8.166;2023-07-20T17:14:55;97827.97;;;28.55;29.26
54876;BME280;40764;48.472;8.166;2023-07-20T17:20:55;97831.03;;;28.07;30.02
54876;BME280;40764;48.472;8.166;2023-07-20T17:26:56;97835.38;;;27.36;30.58
54876;BME280;40764;48.472;8.166;2023-07-20T17:32:57;97842.84;;;27.09;31.39
54876;BME280;40764;48.472;8.166;2023-07-20T17:38:58;97839.88;;;26.75;31.65
54876;BME280;40764;48.472;8.166;2023-07-20T17:44:58;97836.84;;;26.48;32.09
54876;BME280;40764;48.472;8.166;2023-07-20T17:50:59;97835.72;;;26.31;32.90
54876;BME280;40764;48.472;8.166;2023-07-20T17:57:04;97832.97;;;26.17;33.08
54876;BME280;40764;48.472;8.166;2023-07-20T18:03:04;97830.69;;;25.87;35.95
54876;BME280;40764;48.472;8.166;2023-07-20T18:09:05;97837.56;;;25.57;36.20
54876;BME280;40764;48.472;8.166;2023-07-20T18:15:07;97834.81;;;25.00;39.95
54876;BME280;40764;48.472;8.166;2023-07-20T18:21:08;97832.00;;;24.90;40.93
54876;BME280;40764;48.472;8.166;2023-07-20T18:27:16;97832.78;;;24.80;43.77
54876;BME280;40764;48.472;8.166;2023-07-20T18:33:18;97825.78;;;23.99;44.63
54876;BME280;40764;48.472;8.166;2023-07-20T18:39:18;97832.53;;;23.94;44.54
54876;BME280;40764;48.472;8.166;2023-07-20T18:45:19;97846.63;;;23.46;45.73
54876;BME280;40764;48.472;8.166;2023-07-20T18:51:22;97835.72;;;23.24;47.00
54876;BME280;40764;48.472;8.166;2023-07-20T18:57:23;97837.91;;;23.00;46.70
54876;BME280;40764;48.472;8.166;2023-07-20T19:03:24;97839.34;;;22.83;47.15
54876;BME280;40764;48.472;8.166;2023-07-20T19:09:25;97840.88;;;22.77;46.88
54876;BME280;40764;48.472;8.166;2023-07-20T19:15:25;97836.41;;;22.29;49.47
54876;BME280;40764;48.472;8.166;2023-07-20T19:21:28;97841.06;;;22.17;50.65
54876;BME280;40764;48.472;8.166;2023-07-20T19:27:28;97846.28;;;21.92;50.66
54876;BME280;40764;48.472;8.166;2023-07-20T19:33:29;97852.69;;;21.96;51.05
54876;BME280;40764;48.472;8.166;2023-07-20T19:39:29;97863.31;;;22.17;50.11
54876;BME280;40764;48.472;8.166;2023-07-20T19:45:30;97872.13;;;21.93;51.24
54876;BME280;40764;48.472;8.166;2023-07-20T19:51:31;97874.00;;;21.55;52.51
54876;BME280;40764;48.472;8.166;2023-07-20T19:57:32;97877.22;;;21.31;53.64
54876;BME280;40764;48.472;8.166;2023-07-20T20:03:33;97888.13;;;21.20;53.50
54876;BME280;40764;48.472;8.166;2023-07-20T20:09:34;97887.06;;;21.25;52.72
54876;BME280;40764;48.472;8.166;2023-07-20T20:15:34;97898.84;;;20.95;53.60
54876;BME280;40764;48.472;8.166;2023-07-20T20:21:34;97901.88;;;20.87;55.00
54876;BME280;40764;48.472;8.166;2023-07-20T20:27:35;97895.88;;;20.62;55.71
54876;BME280;40764;48.472;8.166;2023-07-20T20:33:36;97898.34;;;20.48;55.48
54876;BME280;40764;48.472;8.166;2023-07-20T20:39:37;97895.16;;;20.07;57.79
54876;BME280;40764;48.472;8.166;2023-07-20T20:45:37;97902.88;;;20.17;57.09
54876;BME280;40764;48.472;8.166;2023-07-20T20:51:38;97888.94;;;20.33;55.79
54876;BME280;40764;48.472;8.166;2023-07-20T20:57:41;97886.47;;;20.28;56.38
54876;BME280;40764;48.472;8.166;2023-07-20T21:03:41;97889.25;;;20.08;56.67
54876;BME280;40764;48.472;8.166;2023-07-20T21:09:44;97885.16;;;20.02;56.47
54876;BME280;40764;48.472;8.166;2023-07-20T21:15:45;97883.81;;;19.26;59.36
54876;BME280;40764;48.472;8.166;2023-07-20T21:21:52;97879.34;;;19.37;60.29
54876;BME280;40764;48.472;8.166;2023-07-20T21:27:53;97881.56;;;19.47;58.99
54876;BME280;40764;48.472;8.166;2023-07-20T21:33:53;97878.28;;;19.26;58.28
54876;BME280;40764;48.472;8.166;2023-07-20T21:39:54;97884.25;;;19.28;58.06
54876;BME280;40764;48.472;8.166;2023-07-20T21:45:54;97881.06;;;18.79;59.67
54876;BME280;40764;48.472;8.166;2023-07-20T21:51:54;97882.50;;;18.88;60.28
54876;BME280;40764;48.472;8.166;2023-07-20T21:57:55;97877.38;;;18.59;61.04
54876;BME280;40764;48.472;8.166;2023-07-20T22:03:55;97871.34;;;18.69;60.88
54876;BME280;40764;48.472;8.166;2023-07-20T22:09:55;97882.34;;;18.81;59.20
54876;BME280;40764;48.472;8.166;2023-07-20T22:15:56;97875.56;;;18.35;61.09
54876;BME280;40764;48.472;8.166;2023-07-20T22:21:57;97872.88;;;18.39;62.05
54876;BME280;40764;48.472;8.166;2023-07-20T22:27:57;97871.34;;;18.25;61.82
54876;BME280;40764;48.472;8.166;2023-07-20T22:33:58;97875.41;;;17.88;63.47
54876;BME280;40764;48.472;8.166;2023-07-20T22:39:58;97866.41;;;18.19;62.12
54876;BME280;40764;48.472;8.166;2023-07-20T22:45:59;97872.34;;;18.05;62.78
54876;BME280;40764;48.472;8.166;2023-07-20T22:51:59;97873.50;;;17.76;63.19
54876;BME280;40764;48.472;8.166;2023-07-20T22:58:00;97868.22;;;17.71;63.62
54876;BME280;40764;48.472;8.166;2023-07-20T23:04:03;97857.47;;;17.82;62.66
54876;BME280;40764;48.472;8.166;2023-07-20T23:10:05;97863.03;;;17.70;62.53
54876;BME280;40764;48.472;8.166;2023-07-20T23:16:08;97865.78;;;17.57;63.65
54876;BME280;40764;48.472;8.166;2023-07-20T23:22:09;97863.59;;;17.75;63.16
54876;BME280;40764;48.472;8.166;2023-07-20T23:28:09;97854.75;;;17.70;63.10
54876;BME280;40764;48.472;8.166;2023-07-20T23:34:10;97843.69;;;17.70;62.74
54876;BME280;40764;48.472;8.166;2023-07-20T23:40:11;97837.59;;;17.52;62.77
54876;BME280;40764;48.472;8.166;2023-07-20T23:46:12;97833.53;;;17.74;62.56
54876;BME280;40764;48.472;8.166;2023-07-20T23:52:14;97837.81;;;17.71;62.94
54876;BME280;40764;48.472;8.166;2023-07-20T23:58:18;97840.47;;;17.55;63.25
